createdAt,value
2023-04-11T00:00:53.240Z,458.00
2023-04-11T00:01:53.408Z,454.00
2023-04-11T00:02:53.419Z,454.00
2023-04-11T00:03:53.425Z,455.00
2023-04-11T00:04:53.259Z,449.00
2023-04-11T00:05:53.308Z,450.00
2023-04-11T00:06:53.314Z,451.00
2023-04-11T00:07:53.374Z,453.00
2023-04-11T00:08:53.734Z,450.00
2023-04-11T00:09:53.504Z,465.00
2023-04-11T00:10:53.549Z,478.00
2023-04-11T00:11:53.621Z,455.00
2023-04-11T00:12:53.657Z,456.00
2023-04-11T00:13:53.632Z,459.00
2023-04-11T00:14:53.686Z,458.00
2023-04-11T00:15:53.709Z,456.00
2023-04-11T00:16:53.826Z,459.00
2023-04-11T00:17:53.885Z,467.00
2023-04-11T00:18:53.905Z,461.00
2023-04-11T00:19:53.703Z,465.00
2023-04-11T00:20:53.721Z,464.00
2023-04-11T00:21:54.597Z,464.00
2023-04-11T00:22:53.776Z,467.00
2023-04-11T00:23:53.779Z,466.00
2023-04-11T00:24:54.619Z,465.00
2023-04-11T00:25:53.787Z,469.00
2023-04-11T00:26:53.817Z,467.00
2023-04-11T00:27:53.807Z,468.00
2023-04-11T00:28:53.982Z,467.00
2023-04-11T00:29:53.774Z,467.00
2023-04-11T00:30:53.877Z,467.00
2023-04-11T00:31:53.886Z,466.00
2023-04-11T00:32:53.955Z,464.00
2023-04-11T00:33:53.823Z,465.00
2023-04-11T00:34:53.844Z,460.00
2023-04-11T00:35:54.677Z,468.00
2023-04-11T00:36:53.915Z,467.00
2023-04-11T00:37:53.880Z,456.00
2023-04-11T00:38:54.569Z,458.00
2023-04-11T00:39:54.020Z,459.00
2023-04-11T00:40:53.997Z,461.00
2023-04-11T00:41:54.000Z,460.00
2023-04-11T00:42:54.024Z,463.00
2023-04-11T00:43:54.066Z,464.00
2023-04-11T00:44:54.072Z,463.00
2023-04-11T00:45:54.117Z,464.00
2023-04-11T00:46:54.100Z,463.00
2023-04-11T00:47:54.150Z,461.00
2023-04-11T00:48:54.648Z,461.00
2023-04-11T00:49:54.097Z,463.00
2023-04-11T00:50:54.162Z,462.00
2023-04-11T00:51:54.534Z,460.00
2023-04-11T00:52:54.287Z,457.00
2023-04-11T00:53:54.619Z,458.00
2023-04-11T00:54:54.297Z,458.00
2023-04-11T00:55:54.295Z,460.00
2023-04-11T00:56:54.302Z,461.00
2023-04-11T00:57:54.351Z,462.00
2023-04-11T00:58:54.575Z,463.00
2023-04-11T00:59:54.415Z,467.00
2023-04-11T01:00:54.494Z,467.00
2023-04-11T01:01:54.633Z,465.00
2023-04-11T01:02:54.702Z,476.00
2023-04-11T01:03:54.734Z,463.00
2023-04-11T01:04:54.730Z,468.00
2023-04-11T01:05:54.817Z,462.00
2023-04-11T01:06:54.783Z,461.00
2023-04-11T01:07:54.795Z,462.00
2023-04-11T01:08:55.048Z,462.00
2023-04-11T01:09:54.802Z,461.00
2023-04-11T01:10:54.774Z,462.00
2023-04-11T01:11:54.799Z,461.00
2023-04-11T01:12:54.769Z,463.00
2023-04-11T01:13:54.792Z,459.00
2023-04-11T01:14:54.875Z,459.00
2023-04-11T01:15:55.201Z,461.00
2023-04-11T01:16:54.958Z,465.00
2023-04-11T01:17:54.978Z,461.00
2023-04-11T01:18:55.142Z,463.00
2023-04-11T01:19:55.012Z,462.00
2023-04-11T01:20:55.072Z,463.00
2023-04-11T01:21:55.097Z,465.00
2023-04-11T01:22:55.134Z,465.00
2023-04-11T01:23:55.167Z,467.00
2023-04-11T01:24:55.202Z,460.00
2023-04-11T01:25:55.573Z,460.00
2023-04-11T01:26:55.629Z,459.00
2023-04-11T01:27:55.365Z,462.00
2023-04-11T01:28:55.521Z,464.00
2023-04-11T01:29:55.420Z,463.00
2023-04-11T01:30:55.566Z,460.00
2023-04-11T01:31:55.593Z,459.00
2023-04-11T01:32:56.365Z,460.00
2023-04-11T01:33:55.747Z,459.00
2023-04-11T01:34:55.744Z,457.00
2023-04-11T01:35:55.804Z,457.00
2023-04-11T01:36:55.836Z,460.00
2023-04-11T01:37:55.930Z,460.00
2023-04-11T01:38:56.434Z,459.00
2023-04-11T01:39:55.983Z,460.00
2023-04-11T01:40:55.937Z,459.00
2023-04-11T01:41:57.039Z,461.00
2023-04-11T01:42:56.056Z,461.00
2023-04-11T01:43:56.123Z,461.00
2023-04-11T01:44:56.159Z,465.00
2023-04-11T01:45:56.213Z,464.00
2023-04-11T01:46:56.282Z,451.00
2023-04-11T01:47:56.458Z,458.00
2023-04-11T01:48:56.606Z,463.00
2023-04-11T01:49:56.812Z,463.00
2023-04-11T01:50:56.464Z,463.00
2023-04-11T01:51:56.478Z,465.00
2023-04-11T01:52:56.459Z,467.00
2023-04-11T01:53:56.458Z,468.00
2023-04-11T01:54:56.808Z,470.00
2023-04-11T01:55:56.816Z,468.00
2023-04-11T01:56:56.531Z,468.00
2023-04-11T01:57:56.584Z,465.00
2023-04-11T01:58:57.909Z,464.00
2023-04-11T01:59:56.669Z,465.00
2023-04-11T02:00:56.677Z,467.00
2023-04-11T02:01:57.185Z,465.00
2023-04-11T02:02:56.815Z,457.00
2023-04-11T02:03:56.866Z,475.00
2023-04-11T02:04:57.152Z,455.00
2023-04-11T02:05:56.835Z,449.00
2023-04-11T02:06:56.878Z,462.00
2023-04-11T02:07:57.305Z,454.00
2023-04-11T02:08:57.212Z,458.00
2023-04-11T02:09:57.031Z,477.00
2023-04-11T02:10:57.034Z,466.00
2023-04-11T02:11:57.095Z,458.00
2023-04-11T02:12:57.151Z,450.00
2023-04-11T02:13:57.156Z,452.00
2023-04-11T02:14:57.173Z,462.00
2023-04-11T02:15:57.211Z,463.00
2023-04-11T02:16:57.319Z,460.00
2023-04-11T02:17:57.315Z,475.00
2023-04-11T02:18:57.549Z,468.00
2023-04-11T02:19:57.504Z,460.00
2023-04-11T02:20:57.481Z,477.00
2023-04-11T02:21:57.558Z,471.00
2023-04-11T02:22:57.544Z,468.00
2023-04-11T02:23:57.703Z,466.00
2023-04-11T02:24:57.526Z,478.00
2023-04-11T02:25:57.514Z,469.00
2023-04-11T02:26:57.603Z,463.00
2023-04-11T02:27:57.518Z,466.00
2023-04-11T02:28:57.734Z,469.00
2023-04-11T02:29:57.534Z,464.00
2023-04-11T02:30:57.620Z,465.00
2023-04-11T02:31:57.713Z,461.00
2023-04-11T02:32:57.638Z,458.00
2023-04-11T02:33:57.576Z,460.00
2023-04-11T02:34:57.617Z,459.00
2023-04-11T02:35:57.632Z,461.00
2023-04-11T02:36:57.697Z,463.00
2023-04-11T02:37:57.701Z,457.00
2023-04-11T02:38:57.760Z,458.00
2023-04-11T02:39:57.837Z,458.00
2023-04-11T02:40:57.825Z,459.00
2023-04-11T02:41:57.824Z,457.00
2023-04-11T02:42:58.136Z,459.00
2023-04-11T02:43:57.854Z,459.00
2023-04-11T02:44:58.145Z,464.00
2023-04-11T02:46:05.826Z,465.00
2023-04-11T02:46:58.871Z,467.00
2023-04-11T02:47:57.890Z,476.00
2023-04-11T02:48:58.029Z,467.00
2023-04-11T02:49:57.823Z,472.00
2023-04-11T02:50:57.801Z,458.00
2023-04-11T02:51:57.879Z,483.00
2023-04-11T02:52:57.836Z,476.00
2023-04-11T02:53:57.794Z,469.00
2023-04-11T02:54:57.763Z,469.00
2023-04-11T02:55:57.792Z,468.00
2023-04-11T02:56:57.806Z,470.00
2023-04-11T02:57:57.713Z,473.00
2023-04-11T02:58:58.113Z,473.00
2023-04-11T02:59:57.813Z,469.00
2023-04-11T03:00:57.856Z,468.00
2023-04-11T03:01:58.003Z,468.00
2023-04-11T03:02:57.975Z,473.00
2023-04-11T03:03:57.993Z,475.00
2023-04-11T03:04:57.932Z,471.00
2023-04-11T03:05:57.986Z,470.00
2023-04-11T03:06:57.968Z,468.00
2023-04-11T03:07:58.263Z,469.00
2023-04-11T03:08:58.254Z,467.00
2023-04-11T03:09:57.941Z,467.00
2023-04-11T03:10:57.929Z,469.00
2023-04-11T03:11:57.908Z,466.00
2023-04-11T03:12:57.927Z,475.00
2023-04-11T03:13:57.946Z,472.00
2023-04-11T03:14:58.006Z,470.00
2023-04-11T03:15:57.989Z,466.00
2023-04-11T03:16:57.968Z,464.00
2023-04-11T03:17:57.983Z,463.00
2023-04-11T03:18:58.027Z,462.00
2023-04-11T03:19:57.975Z,460.00
2023-04-11T03:20:58.098Z,458.00
2023-04-11T03:21:58.152Z,458.00
2023-04-11T03:22:58.216Z,460.00
2023-04-11T03:23:58.215Z,453.00
2023-04-11T03:24:58.234Z,455.00
2023-04-11T03:25:58.295Z,454.00
2023-04-11T03:26:58.402Z,456.00
2023-04-11T03:27:58.361Z,460.00
2023-04-11T03:28:58.388Z,462.00
2023-04-11T03:29:58.469Z,462.00
2023-04-11T03:30:58.525Z,462.00
2023-04-11T03:31:58.478Z,460.00
2023-04-11T03:32:58.563Z,457.00
2023-04-11T03:33:58.473Z,458.00
2023-04-11T03:34:58.486Z,458.00
2023-04-11T03:35:58.545Z,463.00
2023-04-11T03:36:58.542Z,465.00
2023-04-11T03:37:58.566Z,465.00
2023-04-11T03:38:58.586Z,458.00
2023-04-11T03:39:58.523Z,463.00
2023-04-11T03:40:58.646Z,468.00
2023-04-11T03:41:58.602Z,489.00
2023-04-11T03:42:58.594Z,451.00
2023-04-11T03:43:58.641Z,455.00
2023-04-11T03:44:58.736Z,466.00
2023-04-11T03:45:58.725Z,465.00
2023-04-11T03:46:58.823Z,466.00
2023-04-11T03:47:58.815Z,465.00
2023-04-11T03:48:58.882Z,465.00
2023-04-11T03:49:58.801Z,468.00
2023-04-11T03:50:58.915Z,470.00
2023-04-11T03:51:58.968Z,466.00
2023-04-11T03:52:59.037Z,468.00
2023-04-11T03:53:59.027Z,466.00
2023-04-11T03:54:59.104Z,466.00
2023-04-11T03:55:59.146Z,467.00
2023-04-11T03:56:59.183Z,468.00
2023-04-11T03:57:59.242Z,469.00
2023-04-11T03:58:59.297Z,472.00
2023-04-11T03:59:59.369Z,467.00
2023-04-11T04:00:59.273Z,474.00
2023-04-11T04:01:59.439Z,476.00
2023-04-11T04:02:59.510Z,470.00
2023-04-11T04:03:59.766Z,472.00
2023-04-11T04:04:59.450Z,473.00
2023-04-11T04:05:59.509Z,476.00
2023-04-11T04:06:59.484Z,476.00
2023-04-11T04:07:59.448Z,476.00
2023-04-11T04:08:59.453Z,473.00
2023-04-11T04:09:59.526Z,473.00
2023-04-11T04:10:59.455Z,474.00
2023-04-11T04:11:59.451Z,474.00
2023-04-11T04:12:59.532Z,475.00
2023-04-11T04:13:59.495Z,476.00
2023-04-11T04:14:59.477Z,479.00
2023-04-11T04:16:01.276Z,475.00
2023-04-11T04:16:59.560Z,476.00
2023-04-11T04:17:59.480Z,474.00
2023-04-11T04:18:59.463Z,480.00
2023-04-11T04:19:59.476Z,471.00
2023-04-11T04:20:59.468Z,473.00
2023-04-11T04:21:59.475Z,480.00
2023-04-11T04:22:59.461Z,490.00
2023-04-11T04:23:59.445Z,490.00
2023-04-11T04:24:59.420Z,487.00
2023-04-11T04:25:59.420Z,486.00
2023-04-11T04:26:59.446Z,485.00
2023-04-11T04:27:59.423Z,483.00
2023-04-11T04:28:59.427Z,478.00
2023-04-11T04:30:03.332Z,483.00
2023-04-11T04:31:00.502Z,478.00
2023-04-11T04:31:59.417Z,479.00
2023-04-11T04:32:59.744Z,479.00
2023-04-11T04:33:59.332Z,484.00
2023-04-11T04:34:59.370Z,487.00
2023-04-11T04:35:59.508Z,485.00
2023-04-11T04:36:59.448Z,485.00
2023-04-11T04:37:59.393Z,484.00
2023-04-11T04:38:59.374Z,481.00
2023-04-11T04:39:59.337Z,481.00
2023-04-11T04:40:59.349Z,481.00
2023-04-11T04:41:59.388Z,478.00
2023-04-11T04:42:59.326Z,476.00
2023-04-11T04:43:59.568Z,475.00
2023-04-11T04:44:59.321Z,480.00
2023-04-11T04:45:59.367Z,483.00
2023-04-11T04:46:59.303Z,483.00
2023-04-11T04:47:59.384Z,484.00
2023-04-11T04:49:01.675Z,484.00
2023-04-11T04:49:59.252Z,488.00
2023-04-11T04:50:59.283Z,489.00
2023-04-11T04:51:59.284Z,488.00
2023-04-11T04:52:59.274Z,487.00
2023-04-11T04:53:59.301Z,482.00
2023-04-11T04:54:59.255Z,482.00
2023-04-11T04:55:59.256Z,481.00
2023-04-11T04:56:59.277Z,485.00
2023-04-11T04:57:59.255Z,487.00
2023-04-11T04:58:59.224Z,492.00
2023-04-11T04:59:59.262Z,492.00
2023-04-11T05:00:59.236Z,491.00
2023-04-11T05:01:59.304Z,491.00
2023-04-11T05:03:00.003Z,494.00
2023-04-11T05:04:00.017Z,498.00
2023-04-11T05:04:59.242Z,498.00
2023-04-11T05:05:59.190Z,492.00
2023-04-11T05:06:59.289Z,494.00
2023-04-11T05:07:59.257Z,480.00
2023-04-11T05:08:59.172Z,492.00
2023-04-11T05:09:59.774Z,491.00
2023-04-11T05:10:59.140Z,500.00
2023-04-11T05:11:59.133Z,503.00
2023-04-11T05:12:59.142Z,494.00
2023-04-11T05:13:59.570Z,498.00
2023-04-11T05:14:59.222Z,496.00
2023-04-11T05:15:59.114Z,490.00
2023-04-11T05:16:59.203Z,491.00
2023-04-11T05:17:59.172Z,492.00
2023-04-11T05:18:59.087Z,493.00
2023-04-11T05:19:59.087Z,493.00
2023-04-11T05:20:59.151Z,492.00
2023-04-11T05:21:59.107Z,496.00
2023-04-11T05:22:59.910Z,494.00
2023-04-11T05:23:59.064Z,491.00
2023-04-11T05:24:59.097Z,492.00
2023-04-11T05:25:59.089Z,495.00
2023-04-11T05:26:59.234Z,498.00
2023-04-11T05:27:59.520Z,501.00
2023-04-11T05:28:59.202Z,501.00
2023-04-11T05:29:58.995Z,508.00
2023-04-11T05:31:00.818Z,521.00
2023-04-11T05:31:59.026Z,515.00
2023-04-11T05:32:59.429Z,514.00
2023-04-11T05:33:59.145Z,493.00
2023-04-11T05:34:59.488Z,501.00
2023-04-11T05:35:59.094Z,495.00
2023-04-11T05:36:59.045Z,488.00
2023-04-11T05:37:59.309Z,527.00
2023-04-11T05:38:59.892Z,487.00
2023-04-11T05:39:59.081Z,494.00
2023-04-11T05:40:59.148Z,501.00
2023-04-11T05:41:59.026Z,489.00
2023-04-11T05:42:59.313Z,486.00
2023-04-11T05:43:59.051Z,491.00
2023-04-11T05:44:59.110Z,486.00
2023-04-11T05:47:19.666Z,493.00
2023-04-11T05:48:19.083Z,494.00
2023-04-11T05:49:18.899Z,490.00
2023-04-11T05:50:19.001Z,502.00
2023-04-11T05:51:18.898Z,489.00
2023-04-11T05:52:19.455Z,488.00
2023-04-11T05:53:19.173Z,487.00
2023-04-11T05:54:19.236Z,493.00
2023-04-11T05:55:19.407Z,490.00
2023-04-11T05:56:19.246Z,491.00
2023-04-11T05:57:19.215Z,473.00
2023-04-11T05:58:19.468Z,476.00
2023-04-11T05:59:24.709Z,476.00
2023-04-11T06:00:19.845Z,481.00
2023-04-11T06:01:20.080Z,479.00
2023-04-11T06:02:19.440Z,480.00
2023-04-11T06:03:20.513Z,479.00
2023-04-11T06:04:19.612Z,469.00
2023-04-11T06:05:19.354Z,471.00
2023-04-11T06:06:19.295Z,471.00
2023-04-11T06:07:20.321Z,465.00
2023-04-11T06:08:19.320Z,471.00
2023-04-11T06:09:19.346Z,477.00
2023-04-11T06:10:19.386Z,477.00
2023-04-11T06:11:19.817Z,478.00
2023-04-11T06:12:19.102Z,473.00
2023-04-11T06:13:19.265Z,472.00
2023-04-11T06:14:19.908Z,472.00
2023-04-11T06:15:19.488Z,471.00
2023-04-11T06:16:19.428Z,474.00
2023-04-11T06:17:19.450Z,478.00
2023-04-11T06:18:20.260Z,476.00
2023-04-11T06:19:19.338Z,477.00
2023-04-11T06:20:19.431Z,478.00
2023-04-11T06:21:19.240Z,477.00
2023-04-11T06:22:19.272Z,477.00
2023-04-11T06:23:19.288Z,479.00
2023-04-11T06:24:19.443Z,480.00
2023-04-11T06:25:19.354Z,480.00
2023-04-11T06:26:19.402Z,480.00
2023-04-11T06:27:19.256Z,478.00
2023-04-11T06:28:19.307Z,479.00
2023-04-11T06:29:19.377Z,479.00
2023-04-11T06:30:19.430Z,480.00
2023-04-11T06:31:19.467Z,485.00
2023-04-11T06:32:19.790Z,489.00
2023-04-11T06:33:19.416Z,489.00
2023-04-11T06:34:19.358Z,490.00
2023-04-11T06:35:19.374Z,488.00
2023-04-11T06:36:19.470Z,485.00
2023-04-11T06:37:19.378Z,484.00
2023-04-11T06:38:20.874Z,486.00
2023-04-11T06:39:19.274Z,484.00
2023-04-11T06:40:19.253Z,483.00
2023-04-11T06:42:39.169Z,489.00
2023-04-11T06:43:39.986Z,486.00
2023-04-11T06:44:40.064Z,484.00
2023-04-11T06:45:39.106Z,486.00
2023-04-11T06:46:39.146Z,487.00
2023-04-11T06:47:39.922Z,495.00
2023-04-11T06:48:39.253Z,492.00
2023-04-11T06:49:39.973Z,493.00
2023-04-11T06:50:39.206Z,499.00
2023-04-11T06:51:39.172Z,497.00
2023-04-11T06:52:39.089Z,495.00
2023-04-11T06:53:39.046Z,488.00
2023-04-11T06:54:39.183Z,486.00
2023-04-11T06:55:39.136Z,488.00
2023-04-11T06:56:39.226Z,486.00
2023-04-11T06:57:39.138Z,485.00
2023-04-11T06:58:39.705Z,479.00
2023-04-11T06:59:39.891Z,480.00
2023-04-11T07:00:39.063Z,483.00
2023-04-11T07:01:39.362Z,492.00
2023-04-11T07:02:39.401Z,487.00
2023-04-11T07:03:39.767Z,484.00
2023-04-11T07:04:39.175Z,482.00
2023-04-11T07:05:39.670Z,481.00
2023-04-11T07:06:39.094Z,480.00
2023-04-11T07:07:39.093Z,484.00
2023-04-11T07:08:39.145Z,484.00
2023-04-11T07:09:40.249Z,484.00
2023-04-11T07:10:39.226Z,481.00
2023-04-11T07:11:39.035Z,484.00
2023-04-11T07:12:39.209Z,494.00
2023-04-11T07:13:39.255Z,486.00
2023-04-11T07:14:39.237Z,475.00
2023-04-11T07:15:39.207Z,484.00
2023-04-11T07:16:39.287Z,462.00
2023-04-11T07:17:39.395Z,473.00
2023-04-11T07:18:39.238Z,469.00
2023-04-11T07:19:39.208Z,481.00
2023-04-11T07:20:39.283Z,482.00
2023-04-11T07:21:39.203Z,476.00
2023-04-11T07:22:39.269Z,483.00
2023-04-11T07:23:40.127Z,481.00
2023-04-11T07:24:39.136Z,464.00
2023-04-11T07:25:39.084Z,471.00
2023-04-11T07:26:39.118Z,473.00
2023-04-11T07:27:39.133Z,466.00
2023-04-11T07:28:39.075Z,489.00
2023-04-11T07:29:39.102Z,477.00
2023-04-11T07:30:39.052Z,473.00
2023-04-11T07:31:39.115Z,468.00
2023-04-11T07:32:39.185Z,481.00
2023-04-11T07:33:39.505Z,487.00
2023-04-11T07:34:39.184Z,454.00
2023-04-11T07:35:39.167Z,467.00
2023-04-11T07:36:39.163Z,468.00
2023-04-11T07:37:39.174Z,396.00
2023-04-11T07:38:39.486Z,458.00
2023-04-11T07:39:39.243Z,459.00
2023-04-11T07:40:39.255Z,470.00
2023-04-11T07:41:39.456Z,449.00
2023-04-11T07:42:39.335Z,453.00
2023-04-11T07:43:39.572Z,451.00
2023-04-11T07:44:39.462Z,453.00
2023-04-11T07:45:39.709Z,456.00
2023-04-11T07:46:39.541Z,442.00
2023-04-11T07:47:39.603Z,455.00
2023-04-11T07:48:40.070Z,462.00
2023-04-11T07:49:39.592Z,472.00
2023-04-11T07:50:39.712Z,466.00
2023-04-11T07:51:39.715Z,480.00
2023-04-11T07:52:39.618Z,453.00
2023-04-11T07:53:39.690Z,458.00
2023-04-11T07:54:39.634Z,460.00
2023-04-11T07:55:39.577Z,462.00
2023-04-11T07:56:39.616Z,461.00
2023-04-11T07:57:40.296Z,461.00
2023-04-11T07:58:39.652Z,455.00
2023-04-11T07:59:39.604Z,468.00
2023-04-11T08:00:42.203Z,462.00
2023-04-11T08:01:39.693Z,467.00
2023-04-11T08:02:39.725Z,464.00
2023-04-11T08:03:39.659Z,461.00
2023-04-11T08:04:39.821Z,460.00
2023-04-11T08:05:39.586Z,459.00
2023-04-11T08:06:39.464Z,461.00
2023-04-11T08:07:39.445Z,456.00
2023-04-11T08:08:40.549Z,459.00
2023-04-11T08:09:39.461Z,458.00
2023-04-11T08:10:39.525Z,458.00
2023-04-11T08:11:39.530Z,457.00
2023-04-11T08:12:39.517Z,464.00
2023-04-11T08:13:39.555Z,468.00
2023-04-11T08:14:39.502Z,479.00
2023-04-11T08:15:39.486Z,463.00
2023-04-11T08:16:39.540Z,465.00
2023-04-11T08:17:39.561Z,466.00
2023-04-11T08:18:39.450Z,469.00
2023-04-11T08:19:39.504Z,471.00
2023-04-11T08:20:39.568Z,467.00
2023-04-11T08:21:39.413Z,463.00
2023-04-11T08:22:39.456Z,461.00
2023-04-11T08:23:39.436Z,457.00
2023-04-11T08:24:39.514Z,463.00
2023-04-11T08:25:39.449Z,466.00
2023-04-11T08:26:39.541Z,469.00
2023-04-11T08:27:39.387Z,468.00
2023-04-11T08:28:41.114Z,470.00
2023-04-11T08:29:39.989Z,482.00
2023-04-11T08:30:40.528Z,487.00
2023-04-11T08:31:39.737Z,474.00
2023-04-11T08:32:40.624Z,474.00
2023-04-11T08:33:39.819Z,519.00
2023-04-11T08:34:39.712Z,482.00
2023-04-11T08:35:39.833Z,468.00
2023-04-11T08:36:39.718Z,464.00
2023-04-11T08:37:39.785Z,470.00
2023-04-11T08:38:39.698Z,470.00
2023-04-11T08:39:40.056Z,476.00
2023-04-11T08:40:39.884Z,473.00
2023-04-11T08:41:39.660Z,469.00
2023-04-11T08:42:39.680Z,467.00
2023-04-11T08:43:39.655Z,469.00
2023-04-11T08:44:39.633Z,473.00
2023-04-11T08:45:39.667Z,473.00
2023-04-11T08:46:39.764Z,474.00
2023-04-11T08:47:39.759Z,475.00
2023-04-11T08:48:39.810Z,490.00
2023-04-11T08:49:40.537Z,478.00
2023-04-11T08:50:40.599Z,463.00
2023-04-11T08:51:39.722Z,466.00
2023-04-11T08:52:39.803Z,473.00
2023-04-11T08:53:40.040Z,480.00
2023-04-11T08:54:39.986Z,481.00
2023-04-11T08:55:39.862Z,487.00
2023-04-11T08:56:39.749Z,480.00
2023-04-11T08:57:39.854Z,480.00
2023-04-11T08:58:41.359Z,480.00
2023-04-11T08:59:39.766Z,476.00
2023-04-11T09:00:39.712Z,485.00
2023-04-11T09:01:39.833Z,481.00
2023-04-11T09:02:39.921Z,474.00
2023-04-11T09:03:39.877Z,477.00
2023-04-11T09:04:39.905Z,478.00
2023-04-11T09:05:39.934Z,492.00
2023-04-11T09:06:39.938Z,470.00
2023-04-11T09:07:39.828Z,469.00
2023-04-11T09:08:39.899Z,479.00
2023-04-11T09:09:39.932Z,477.00
2023-04-11T09:10:39.932Z,477.00
2023-04-11T09:11:39.958Z,475.00
2023-04-11T09:12:40.036Z,473.00
2023-04-11T09:13:40.087Z,473.00
2023-04-11T09:14:40.206Z,469.00
2023-04-11T09:15:40.107Z,467.00
2023-04-11T09:16:40.100Z,472.00
2023-04-11T09:17:40.168Z,476.00
2023-04-11T09:18:40.174Z,485.00
2023-04-11T09:19:40.089Z,472.00
2023-04-11T09:20:40.117Z,469.00
2023-04-11T09:21:40.222Z,470.00
2023-04-11T09:22:42.612Z,469.00
2023-04-11T09:23:40.537Z,471.00
2023-04-11T09:24:40.262Z,467.00
2023-04-11T09:25:40.130Z,465.00
2023-04-11T09:26:40.142Z,468.00
2023-04-11T09:27:40.176Z,466.00
2023-04-11T09:28:40.565Z,469.00
2023-04-11T09:29:40.221Z,464.00
2023-04-11T09:30:40.212Z,465.00
2023-04-11T09:31:40.317Z,466.00
2023-04-11T09:32:40.201Z,468.00
2023-04-11T09:33:40.441Z,472.00
2023-04-11T09:34:42.400Z,472.00
2023-04-11T09:35:40.103Z,472.00
2023-04-11T09:36:41.107Z,474.00
2023-04-11T09:37:40.131Z,470.00
2023-04-11T09:38:40.053Z,466.00
2023-04-11T09:39:40.700Z,445.00
2023-04-11T09:40:40.255Z,467.00
2023-04-11T09:41:40.053Z,472.00
2023-04-11T09:42:40.062Z,484.00
2023-04-11T09:43:40.087Z,445.00
2023-04-11T09:44:40.619Z,474.00
2023-04-11T09:45:51.719Z,449.00
2023-04-11T09:46:41.043Z,451.00
2023-04-11T09:47:41.389Z,448.00
2023-04-11T09:48:46.383Z,454.00
2023-04-11T09:49:40.992Z,456.00
2023-04-11T09:50:40.024Z,458.00
2023-04-11T09:51:40.469Z,457.00
2023-04-11T09:52:40.017Z,458.00
2023-04-11T09:53:40.000Z,458.00
2023-04-11T09:54:40.150Z,457.00
2023-04-11T09:55:39.944Z,457.00
2023-04-11T09:56:39.961Z,458.00
2023-04-11T09:57:39.962Z,459.00
2023-04-11T09:58:39.964Z,461.00
2023-04-11T09:59:40.044Z,462.00
2023-04-11T10:00:39.967Z,462.00
2023-04-11T10:01:40.096Z,463.00
2023-04-11T10:02:40.341Z,461.00
2023-04-11T10:03:40.119Z,461.00
2023-04-11T10:04:40.136Z,460.00
2023-04-11T10:05:40.104Z,460.00
2023-04-11T10:06:40.256Z,458.00
2023-04-11T10:07:40.329Z,464.00
2023-04-11T10:08:40.270Z,465.00
2023-04-11T10:09:40.434Z,464.00
2023-04-11T10:10:40.386Z,461.00
2023-04-11T10:11:40.478Z,464.00
2023-04-11T10:12:40.447Z,456.00
2023-04-11T10:13:40.402Z,459.00
2023-04-11T10:14:40.452Z,456.00
2023-04-11T10:15:40.452Z,457.00
2023-04-11T10:16:40.431Z,453.00
2023-04-11T10:17:40.613Z,455.00
2023-04-11T10:18:40.550Z,453.00
2023-04-11T10:19:40.550Z,455.00
2023-04-11T10:20:40.443Z,444.00
2023-04-11T10:21:40.515Z,452.00
2023-04-11T10:22:41.361Z,451.00
2023-04-11T10:23:40.615Z,448.00
2023-04-11T10:24:40.576Z,450.00
2023-04-11T10:25:40.594Z,452.00
2023-04-11T10:26:40.554Z,455.00
2023-04-11T10:27:40.494Z,455.00
2023-04-11T10:28:40.505Z,455.00
2023-04-11T10:29:40.636Z,457.00
2023-04-11T10:30:40.508Z,457.00
2023-04-11T10:31:40.601Z,455.00
2023-04-11T10:32:40.550Z,456.00
2023-04-11T10:33:40.508Z,453.00
2023-04-11T10:34:41.027Z,457.00
2023-04-11T10:35:40.569Z,461.00
2023-04-11T10:36:40.560Z,458.00
2023-04-11T10:37:43.812Z,455.00
2023-04-11T10:38:41.922Z,456.00
2023-04-11T10:39:41.061Z,455.00
2023-04-11T10:40:40.680Z,454.00
2023-04-11T10:41:40.704Z,454.00
2023-04-11T10:42:40.749Z,452.00
2023-04-11T10:43:40.885Z,457.00
2023-04-11T10:44:40.855Z,447.00
2023-04-11T10:45:40.689Z,446.00
2023-04-11T10:46:42.768Z,444.00
2023-04-11T10:47:40.681Z,444.00
2023-04-11T10:48:40.656Z,450.00
2023-04-11T10:49:40.709Z,448.00
2023-04-11T10:50:40.724Z,447.00
2023-04-11T10:51:40.622Z,448.00
2023-04-11T10:52:40.637Z,447.00
2023-04-11T10:53:40.539Z,415.00
2023-04-11T10:54:40.681Z,437.00
2023-04-11T10:55:40.851Z,435.00
2023-04-11T10:56:40.501Z,437.00
2023-04-11T10:57:40.592Z,448.00
2023-04-11T10:58:40.673Z,426.00
2023-04-11T10:59:41.223Z,441.00
2023-04-11T11:00:40.806Z,437.00
2023-04-11T11:02:41.175Z,437.00
2023-04-11T11:03:40.848Z,428.00
2023-04-11T11:04:41.024Z,427.00
2023-04-11T11:05:40.637Z,443.00
2023-04-11T11:06:47.333Z,441.00
2023-04-11T11:07:42.514Z,428.00
2023-04-11T11:08:42.265Z,426.00
2023-04-11T11:09:42.311Z,430.00
2023-04-11T11:10:41.546Z,430.00
2023-04-11T11:11:40.592Z,420.00
2023-04-11T11:12:40.845Z,437.00
2023-04-11T11:13:42.744Z,403.00
2023-04-11T11:14:40.521Z,453.00
2023-04-11T11:15:40.749Z,412.00
2023-04-11T11:16:40.711Z,403.00
2023-04-11T11:17:40.614Z,420.00
2023-04-11T11:18:40.634Z,419.00
2023-04-11T11:19:40.616Z,419.00
2023-04-11T11:20:40.522Z,416.00
2023-04-11T11:21:40.556Z,456.00
2023-04-11T11:22:40.536Z,417.00
2023-04-11T11:23:40.627Z,415.00
2023-04-11T11:24:40.649Z,429.00
2023-04-11T11:25:41.110Z,411.00
2023-04-11T11:26:41.394Z,420.00
2023-04-11T11:27:41.492Z,442.00
2023-04-11T11:28:42.842Z,405.00
2023-04-11T11:29:41.187Z,434.00
2023-04-11T11:30:41.333Z,409.00
2023-04-11T11:31:41.329Z,418.00
2023-04-11T11:32:41.276Z,416.00
2023-04-11T11:33:41.115Z,421.00
2023-04-11T11:34:41.657Z,427.00
2023-04-11T11:35:41.138Z,436.00
2023-04-11T11:36:41.075Z,413.00
2023-04-11T11:37:41.181Z,421.00
2023-04-11T11:38:40.863Z,433.00
2023-04-11T11:39:41.064Z,432.00
2023-04-11T11:40:40.895Z,400.00
2023-04-11T11:41:41.678Z,420.00
2023-04-11T11:42:40.983Z,418.00
2023-04-11T11:43:40.971Z,443.00
2023-04-11T11:44:41.004Z,415.00
2023-04-11T11:45:40.990Z,457.00
2023-04-11T11:46:40.961Z,418.00
2023-04-11T11:47:42.329Z,412.00
2023-04-11T11:48:41.035Z,418.00
2023-04-11T11:49:41.059Z,406.00
2023-04-11T11:50:41.045Z,409.00
2023-04-11T11:51:40.962Z,441.00
2023-04-11T11:52:41.053Z,431.00
2023-04-11T11:53:41.083Z,412.00
2023-04-11T11:54:40.967Z,410.00
2023-04-11T11:55:41.111Z,401.00
2023-04-11T11:56:41.019Z,423.00
2023-04-11T11:57:41.222Z,427.00
2023-04-11T11:58:42.119Z,415.00
2023-04-11T11:59:41.131Z,409.00
2023-04-11T12:00:41.100Z,413.00
2023-04-11T12:01:41.040Z,409.00
2023-04-11T12:02:41.192Z,408.00
2023-04-11T12:03:41.182Z,411.00
2023-04-11T12:04:41.290Z,425.00
2023-04-11T12:05:41.026Z,391.00
2023-04-11T12:06:40.970Z,446.00
2023-04-11T12:07:41.057Z,411.00
2023-04-11T12:08:40.989Z,416.00
2023-04-11T12:09:40.968Z,429.00
2023-04-11T12:10:41.098Z,434.00
2023-04-11T12:11:41.089Z,425.00
2023-04-11T12:12:41.223Z,410.00
2023-04-11T12:13:41.036Z,446.00
2023-04-11T12:14:41.052Z,425.00
2023-04-11T12:15:41.287Z,427.00
2023-04-11T12:16:41.008Z,393.00
2023-04-11T12:17:41.246Z,398.00
2023-04-11T12:18:41.043Z,439.00
2023-04-11T12:19:41.042Z,427.00
2023-04-11T12:20:41.068Z,423.00
2023-04-11T12:21:40.971Z,419.00
2023-04-11T12:22:41.018Z,414.00
2023-04-11T12:23:40.976Z,418.00
2023-04-11T12:24:41.002Z,421.00
2023-04-11T12:25:40.990Z,416.00
2023-04-11T12:26:57.540Z,410.00
2023-04-11T12:27:40.987Z,429.00
2023-04-11T12:28:40.974Z,412.00
2023-04-11T12:29:40.929Z,422.00
2023-04-11T12:30:40.970Z,427.00
2023-04-11T12:31:41.610Z,432.00
2023-04-11T12:32:40.939Z,448.00